Time;durP1;ratioP1;P1;durP2;ratioP2;P2;SDS_P1;SDS_P2;PMS_P1;PMS_P2;Temp;Humidity;BMP_temperature;BMP_pressure;BME280_temperature;BME280_humidity;BME280_pressure;Samples;Min_cycle;Max_cycle;Signal;HPM_P1;HPM_P2
2021/08/18 00:02:07;;;;;;;3.70;1.77;;;;;;;15.89;71.80;98966.91;5130584;27;43170;-81
2021/08/18 00:04:37;;;;;;;2.50;1.97;;;;;;;16.01;71.74;98986.41;5163825;27;42436;-81
2021/08/18 00:07:05;;;;;;;3.53;1.47;;;;;;;16.04;71.51;98976.34;5113228;27;38940;-81
2021/08/18 00:09:32;;;;;;;2.73;1.40;;;;;;;16.01;71.62;98965.06;5128744;27;40949;-81
2021/08/18 00:12:00;;;;;;;1.40;1.30;;;;;;;16.12;71.33;98984.56;5129805;27;41802;-81
2021/08/18 00:14:27;;;;;;;0.80;0.80;;;;;;;16.15;71.20;98984.31;5128056;27;41614;-80
2021/08/18 00:16:54;;;;;;;1.23;1.10;;;;;;;16.17;71.17;98981.50;5130744;27;40033;-81
2021/08/18 00:19:24;;;;;;;2.17;1.53;;;;;;;16.10;71.11;98966.94;5128875;27;42069;-81
2021/08/18 00:21:51;;;;;;;1.67;1.57;;;;;;;15.90;71.20;98931.22;5111834;27;41900;-81
2021/08/18 00:24:19;;;;;;;2.53;1.33;;;;;;;16.21;71.19;98977.59;5128225;27;41242;-81
2021/08/18 00:26:46;;;;;;;2.40;1.67;;;;;;;16.12;70.93;98960.50;5110906;27;39004;-82
2021/08/18 00:29:14;;;;;;;1.37;1.27;;;;;;;16.22;71.31;98973.94;5111867;27;41005;-82
2021/08/18 00:31:42;;;;;;;1.93;1.60;;;;;;;16.24;70.79;98972.00;5110997;27;42176;-82
2021/08/18 00:34:10;;;;;;;1.63;1.20;;;;;;;16.22;70.51;98957.06;5111227;27;41130;-82
2021/08/18 00:36:39;;;;;;;1.10;1.00;;;;;;;16.35;70.57;98973.75;5129041;27;39947;-81
2021/08/18 00:39:06;;;;;;;1.60;1.50;;;;;;;16.35;70.34;98979.09;5128637;27;40923;-80
2021/08/18 00:41:34;;;;;;;1.20;0.67;;;;;;;16.28;70.54;98961.91;5129689;27;42729;-81
2021/08/18 00:44:02;;;;;;;0.97;0.97;;;;;;;16.37;70.36;98977.16;5129621;27;42318;-81
2021/08/18 00:46:30;;;;;;;0.33;0.33;;;;;;;16.19;70.37;98944.81;5129027;27;38898;-81
2021/08/18 00:48:58;;;;;;;3.20;1.23;;;;;;;16.37;70.29;98972.66;5111962;27;40944;-82
2021/08/18 00:51:26;;;;;;;1.50;1.20;;;;;;;16.36;70.53;98970.09;5111957;27;42013;-81
2021/08/18 00:53:55;;;;;;;1.43;1.07;;;;;;;16.30;71.23;98965.28;5133563;27;42413;-81
2021/08/18 00:56:22;;;;;;;1.80;1.40;;;;;;;16.20;71.21;98969.69;5115240;27;38905;-81
2021/08/18 00:58:50;;;;;;;1.30;1.20;;;;;;;16.16;71.29;98969.97;5132785;27;41697;-81
2021/08/18 01:01:17;;;;;;;2.07;1.87;;;;;;;16.07;71.70;98953.88;5115569;27;41914;-82
2021/08/18 01:03:45;;;;;;;2.00;1.00;;;;;;;16.10;71.92;98964.28;5114806;27;42199;-81
2021/08/18 01:06:12;;;;;;;1.63;1.37;;;;;;;16.05;72.67;98955.81;5132608;27;39707;-81
2021/08/18 01:08:40;;;;;;;0.87;0.80;;;;;;;15.96;72.52;98946.72;5133339;27;42017;-81
2021/08/18 01:11:09;;;;;;;1.83;1.30;;;;;;;16.06;72.52;98961.03;5132095;27;43900;-81
2021/08/18 01:13:37;;;;;;;1.23;0.80;;;;;;;16.06;72.57;98958.38;5114445;27;41255;-82
2021/08/18 01:16:05;;;;;;;1.90;1.50;;;;;;;15.86;72.81;98934.25;5132923;27;40664;-82
2021/08/18 01:18:33;;;;;;;1.13;1.03;;;;;;;16.01;72.32;98955.22;5132382;27;41970;-81
2021/08/18 01:21:00;;;;;;;1.40;1.30;;;;;;;16.12;72.55;98963.19;5133268;27;42839;-80
2021/08/18 01:23:28;;;;;;;1.47;1.37;;;;;;;16.14;72.31;98961.22;5132010;27;40954;-82
2021/08/18 01:25:57;;;;;;;1.57;1.20;;;;;;;16.14;72.35;98961.22;5114510;27;39105;-81
2021/08/18 01:28:27;;;;;;;2.07;1.20;;;;;;;16.16;72.58;98961.09;5131637;27;41862;-81
2021/08/18 01:30:55;;;;;;;1.10;1.00;;;;;;;16.06;72.63;98939.66;5113788;27;42860;-81
2021/08/18 01:33:23;;;;;;;0.90;0.90;;;;;;;16.17;72.41;98947.63;5132860;27;42379;-82
2021/08/18 01:35:51;;;;;;;1.70;1.60;;;;;;;16.21;72.40;98955.34;5115145;27;40102;-81
2021/08/18 01:38:21;;;;;;;1.53;1.00;;;;;;;16.06;72.79;98945.00;5133544;27;42024;-81
2021/08/18 01:40:53;;;;;;;1.90;1.23;;;;;;;16.13;72.48;98945.31;5114918;27;42689;-81
2021/08/18 01:43:21;;;;;;;2.13;1.30;;;;;;;16.26;72.23;98963.84;5131509;27;43208;-81
2021/08/18 01:45:51;;;;;;;1.70;1.10;;;;;;;16.29;72.30;98966.28;5133637;27;40255;-81
2021/08/18 01:48:20;;;;;;;1.77;1.13;;;;;;;16.22;72.39;98947.22;5131957;27;41050;-82
2021/08/18 01:50:49;;;;;;;1.20;1.07;;;;;;;16.34;72.02;98966.72;5132597;27;43082;-81
2021/08/18 01:53:19;;;;;;;1.57;1.27;;;;;;;16.27;72.27;98954.84;5131020;27;42224;-82
2021/08/18 01:55:47;;;;;;;1.17;1.07;;;;;;;16.37;71.76;98961.13;5131739;27;40189;-82
2021/08/18 01:58:15;;;;;;;1.70;1.33;;;;;;;16.38;71.73;98962.81;5113963;27;41780;-82
2021/08/18 02:00:43;;;;;;;1.70;0.93;;;;;;;16.39;71.68;98959.16;5114967;27;43275;-82
2021/08/18 02:03:12;;;;;;;0.97;0.97;;;;;;;16.26;71.37;98940.66;5129915;27;43255;-81
2021/08/18 02:05:40;;;;;;;0.93;0.93;;;;;;;16.44;71.51;98964.97;5114848;27;38954;-81
2021/08/18 02:08:07;;;;;;;1.00;0.90;;;;;;;16.41;71.61;98958.06;5114488;27;41272;-82
2021/08/18 02:10:36;;;;;;;0.93;0.90;;;;;;;16.35;71.29;98945.19;5131484;27;42075;-81
2021/08/18 02:13:04;;;;;;;1.37;0.87;;;;;;;16.53;71.39;98964.19;5113448;27;42209;-82
2021/08/18 02:15:34;;;;;;;1.47;1.27;;;;;;;16.55;71.19;98964.06;5130515;27;39077;-82
2021/08/18 02:18:03;;;;;;;1.07;0.97;;;;;;;16.37;71.67;98929.88;5114307;27;41083;-81
2021/08/18 02:20:35;;;;;;;0.90;0.80;;;;;;;16.57;71.00;98962.94;5113723;27;42656;-81
2021/08/18 02:23:04;;;;;;;1.60;1.27;;;;;;;16.48;71.13;98943.19;5130734;27;43231;-83
2021/08/18 02:25:32;;;;;;;1.63;1.40;;;;;;;16.60;71.17;98956.47;5131040;27;40386;-82
2021/08/18 02:28:00;;;;;;;0.83;0.83;;;;;;;16.54;71.39;98952.53;5131342;27;42637;-82
2021/08/18 02:30:29;;;;;;;1.30;1.10;;;;;;;16.48;71.37;98943.19;5130619;27;42818;-82
2021/08/18 02:32:58;;;;;;;1.00;0.80;;;;;;;16.52;71.43;98949.13;5131226;27;42423;-83
2021/08/18 02:35:26;;;;;;;1.40;1.17;;;;;;;16.61;71.22;98964.38;5131435;27;39037;-82
2021/08/18 02:37:57;;;;;;;0.93;0.87;;;;;;;16.62;71.27;98963.44;5112955;27;41263;-82
2021/08/18 02:40:25;;;;;;;1.77;1.10;;;;;;;16.55;71.43;98948.03;5131383;27;42682;-81
2021/08/18 02:42:55;;;;;;;2.53;0.70;;;;;;;16.54;71.20;98947.19;5131214;27;42432;-83
2021/08/18 02:45:23;;;;;;;1.10;0.97;;;;;;;16.64;71.53;98956.13;5131863;27;40465;-82
2021/08/18 02:47:52;;;;;;;1.80;1.37;;;;;;;16.47;71.45;98932.63;5113456;27;40920;-82
2021/08/18 02:50:23;;;;;;;1.30;1.30;;;;;;;16.62;71.52;98955.41;5113337;27;43215;-82
2021/08/18 02:52:51;;;;;;;0.97;0.87;;;;;;;16.69;71.48;98961.09;5113329;27;41238;-83
2021/08/18 02:55:20;;;;;;;1.30;1.10;;;;;;;16.60;71.27;98956.47;5131044;27;39956;-82
2021/08/18 02:57:48;;;;;;;1.40;1.17;;;;;;;16.63;71.43;98951.75;5130955;27;41647;-82
2021/08/18 03:00:16;;;;;;;1.30;1.00;;;;;;;16.62;71.68;98950.06;5112968;27;41985;-82
2021/08/18 03:02:44;;;;;;;1.77;1.17;;;;;;;16.70;71.36;98957.41;5110124;28;41219;-82
2021/08/18 03:05:12;;;;;;;0.80;0.80;;;;;;;16.69;71.32;98961.09;5092435;28;40257;-82
2021/08/18 03:07:40;;;;;;;1.17;0.83;;;;;;;16.69;71.30;98959.25;5110901;27;42082;-82
2021/08/18 03:10:08;;;;;;;1.33;1.23;;;;;;;16.66;71.34;98956.84;5112180;27;42087;-82
2021/08/18 03:12:38;;;;;;;2.53;1.33;;;;;;;16.71;71.36;98965.31;5130844;27;41218;-82
2021/08/18 03:15:07;;;;;;;1.17;1.00;;;;;;;16.72;71.67;98961.66;5111504;27;40131;-82
2021/08/18 03:17:34;;;;;;;0.90;0.80;;;;;;;16.73;71.58;98967.84;5130023;27;42076;-81
2021/08/18 03:20:02;;;;;;;1.40;1.30;;;;;;;16.73;71.30;98958.00;5130330;27;43838;-82
2021/08/18 03:22:30;;;;;;;2.37;1.00;;;;;;;16.40;71.34;98891.38;5130767;27;41215;-82
2021/08/18 03:24:57;;;;;;;0.80;0.80;;;;;;;16.78;71.06;98949.59;5129536;27;39074;-82
2021/08/18 03:27:25;;;;;;;0.80;0.80;;;;;;;16.79;71.27;98946.78;5130523;27;40382;-81
2021/08/18 03:29:54;;;;;;;1.47;1.07;;;;;;;16.80;70.83;98951.16;5112393;27;42996;-82
2021/08/18 03:32:22;;;;;;;0.80;0.53;;;;;;;16.79;70.91;98948.63;5112366;27;42096;-82
2021/08/18 03:34:51;;;;;;;0.73;0.73;;;;;;;16.76;70.88;98941.69;5130448;27;40132;-81
2021/08/18 03:37:18;;;;;;;0.60;0.60;;;;;;;16.79;70.88;98957.50;5130428;27;42799;-82
2021/08/18 03:39:46;;;;;;;1.47;1.00;;;;;;;16.78;70.73;98945.09;5112907;27;42178;-82
2021/08/18 03:42:14;;;;;;;1.23;1.13;;;;;;;16.87;70.63;98964.84;5146588;27;42176;-82
2021/08/18 03:44:41;;;;;;;1.00;0.90;;;;;;;16.77;70.59;98937.19;5129765;27;40271;-82
2021/08/18 03:47:11;;;;;;;2.67;0.80;;;;;;;16.81;70.63;98950.16;5130363;27;41948;-82
2021/08/18 03:49:39;;;;;;;1.17;0.80;;;;;;;16.74;70.82;98930.28;5112262;27;43325;-82
2021/08/18 03:52:07;;;;;;;0.83;0.80;;;;;;;16.78;70.83;98931.72;5108480;28;41992;-81
2021/08/18 03:54:35;;;;;;;1.20;1.10;;;;;;;16.79;70.83;98925.41;5109442;28;40122;-84
2021/08/18 03:57:03;;;;;;;0.93;0.87;;;;;;;16.49;70.79;98890.56;5093463;28;41019;-83
2021/08/18 03:59:31;;;;;;;1.53;0.90;;;;;;;16.87;70.80;98955.00;5126345;27;42912;-82
2021/08/18 04:01:58;;;;;;;0.87;0.70;;;;;;;16.79;70.70;98927.22;5131183;27;42552;-82
2021/08/18 04:04:27;;;;;;;1.00;0.80;;;;;;;16.89;70.82;98946.84;5128476;27;39966;-81
2021/08/18 04:06:54;;;;;;;2.10;0.80;;;;;;;16.93;70.97;98952.78;5112232;27;41622;-83
2021/08/18 04:09:22;;;;;;;1.37;0.90;;;;;;;16.76;71.01;98924.81;5128438;27;41701;-83
2021/08/18 04:11:49;;;;;;;0.93;0.70;;;;;;;16.77;70.89;98929.19;5129809;27;42217;-82
2021/08/18 04:14:17;;;;;;;0.83;0.77;;;;;;;16.96;71.06;98960.50;5128686;27;39881;-82
2021/08/18 04:16:45;;;;;;;1.23;1.13;;;;;;;16.85;70.57;98948.91;5111741;27;40715;-82
2021/08/18 04:19:12;;;;;;;1.43;0.90;;;;;;;16.85;70.90;98946.25;5128685;27;41805;-82
2021/08/18 04:21:41;;;;;;;1.07;0.83;;;;;;;16.85;70.77;98940.91;5111375;27;40867;-83
2021/08/18 04:24:09;;;;;;;1.00;0.77;;;;;;;16.86;70.57;98942.59;5111988;27;38721;-82
2021/08/18 04:26:37;;;;;;;1.20;1.10;;;;;;;16.96;70.82;98958.69;5112017;27;41993;-82
2021/08/18 04:29:04;;;;;;;1.50;0.80;;;;;;;16.88;71.06;98943.31;5127786;27;41861;-82
2021/08/18 04:31:32;;;;;;;0.57;0.57;;;;;;;16.97;71.16;98954.19;5129286;27;43136;-82
2021/08/18 04:33:59;;;;;;;1.30;1.10;;;;;;;16.98;70.80;98958.56;5129857;27;40139;-82
2021/08/18 04:36:27;;;;;;;0.87;0.80;;;;;;;16.99;70.58;98954.91;5128697;27;40957;-82
2021/08/18 04:38:56;;;;;;;0.77;0.77;;;;;;;17.03;70.71;98959.88;5130022;27;42770;-82
2021/08/18 04:41:24;;;;;;;0.40;0.40;;;;;;;17.06;70.86;98962.25;5129070;27;41221;-82
2021/08/18 04:43:52;;;;;;;1.13;1.03;;;;;;;16.97;70.64;98944.31;5128448;27;40219;-82
2021/08/18 04:46:19;;;;;;;1.37;1.27;;;;;;;17.09;70.50;98958.47;5129676;27;41898;-82
2021/08/18 04:48:47;;;;;;;0.77;0.77;;;;;;;17.10;70.62;98960.16;5112079;27;41701;-82
2021/08/18 04:51:15;;;;;;;0.53;0.53;;;;;;;16.82;70.71;98914.41;5111739;27;42461;-82
2021/08/18 04:53:43;;;;;;;0.80;0.80;;;;;;;17.12;70.64;98959.06;5128871;27;40287;-83
2021/08/18 04:56:13;;;;;;;0.80;0.80;;;;;;;16.97;70.55;98928.28;5130186;27;41884;-82
2021/08/18 04:58:40;;;;;;;0.60;0.60;;;;;;;17.07;70.79;98939.00;5111918;27;42798;-83
2021/08/18 05:01:08;;;;;;;1.10;0.90;;;;;;;17.09;70.64;98937.06;5112221;27;41565;-83
2021/08/18 05:03:38;;;;;;;1.90;1.27;;;;;;;17.19;70.54;98954.00;5128332;27;39700;-83
2021/08/18 05:06:05;;;;;;;1.17;1.07;;;;;;;17.24;70.60;98967.81;5128585;27;40624;-84
2021/08/18 05:08:33;;;;;;;2.00;1.23;;;;;;;17.20;70.53;98961.03;5128606;27;43155;-83
2021/08/18 05:11:01;;;;;;;1.10;0.97;;;;;;;17.23;70.58;98971.47;5128863;27;43178;-82
2021/08/18 05:13:30;;;;;;;0.73;0.73;;;;;;;17.25;70.33;98966.84;5110828;27;40325;-82
2021/08/18 05:15:58;;;;;;;0.60;0.60;;;;;;;17.18;70.56;98955.00;5130803;27;42005;-82
2021/08/18 05:18:26;;;;;;;0.77;0.77;;;;;;;17.27;70.36;98967.56;5129469;27;42752;-82
2021/08/18 05:20:54;;;;;;;0.87;0.80;;;;;;;17.31;70.50;98968.16;5129606;27;42280;-82
2021/08/18 05:23:22;;;;;;;0.93;0.80;;;;;;;17.25;70.19;98953.47;5109701;27;38808;-82
2021/08/18 05:25:49;;;;;;;1.10;0.80;;;;;;;17.35;70.31;98970.41;5111134;27;40885;-83
2021/08/18 05:28:18;;;;;;;1.17;0.90;;;;;;;17.31;69.97;98952.91;5129101;27;42110;-82
2021/08/18 05:30:48;;;;;;;0.47;0.47;;;;;;;17.20;70.23;98924.41;5128615;27;42283;-83
2021/08/18 05:33:16;;;;;;;0.60;0.60;;;;;;;17.45;69.84;98952.53;5111755;27;38849;-82
2021/08/18 05:35:44;;;;;;;1.47;1.00;;;;;;;17.47;70.05;98953.25;5129287;27;41843;-83
2021/08/18 05:38:12;;;;;;;0.73;0.60;;;;;;;17.40;70.06;98930.69;5128643;27;44102;-83
2021/08/18 05:40:39;;;;;;;1.10;1.03;;;;;;;17.49;69.57;98945.94;5131595;27;42177;-83
2021/08/18 05:43:07;;;;;;;1.00;0.90;;;;;;;17.52;69.74;98939.47;5131440;27;40161;-83
2021/08/18 05:45:35;;;;;;;0.60;0.60;;;;;;;17.66;69.47;98957.84;5113961;27;40774;-83
2021/08/18 05:48:04;;;;;;;0.67;0.67;;;;;;;17.59;69.45;98933.41;5114077;27;41749;-83
2021/08/18 05:50:32;;;;;;;0.87;0.53;;;;;;;17.62;69.32;98939.47;5128668;27;41670;-83
2021/08/18 05:53:00;;;;;;;0.53;0.53;;;;;;;17.76;69.30;98957.88;5131748;27;39675;-82
2021/08/18 05:55:28;;;;;;;1.00;0.90;;;;;;;17.82;69.01;98962.66;5130293;27;40839;-81
2021/08/18 05:57:55;;;;;;;0.93;0.83;;;;;;;17.82;68.78;98944.75;5131143;27;43550;-83
2021/08/18 06:00:23;;;;;;;1.10;1.00;;;;;;;17.98;68.74;98954.91;5114210;27;41549;-83
2021/08/18 06:02:51;;;;;;;1.63;0.77;;;;;;;18.04;68.72;98950.84;5114323;27;39122;-84
2021/08/18 06:05:20;;;;;;;1.03;0.93;;;;;;;18.00;68.51;98944.91;5132329;27;41968;-83
2021/08/18 06:07:48;;;;;;;1.67;1.03;;;;;;;18.12;68.24;98961.69;5115674;27;42653;-83
2021/08/18 06:10:16;;;;;;;0.50;0.50;;;;;;;18.03;68.17;98944.63;5132718;27;42595;-83
2021/08/18 06:12:43;;;;;;;0.87;0.80;;;;;;;18.13;68.12;98966.06;5131422;27;39164;-83
2021/08/18 06:15:12;;;;;;;0.50;0.50;;;;;;;18.11;68.27;98955.50;5113349;27;40968;-82
2021/08/18 06:17:40;;;;;;;1.03;0.60;;;;;;;18.26;68.32;98962.13;5129832;27;41931;-83
2021/08/18 06:20:09;;;;;;;1.43;1.33;;;;;;;18.34;67.73;98963.25;5112688;27;41340;-82
2021/08/18 06:22:38;;;;;;;0.90;0.90;;;;;;;18.42;67.60;98960.72;5132163;27;40292;-82
2021/08/18 06:25:07;;;;;;;0.70;0.70;;;;;;;18.62;67.45;98973.97;5130737;27;41845;-83
2021/08/18 06:27:35;;;;;;;0.43;0.43;;;;;;;18.72;67.08;98973.94;5131115;27;42939;-84
2021/08/18 06:30:02;;;;;;;0.90;0.70;;;;;;;18.74;66.54;98961.25;5113620;27;42102;-83
2021/08/18 06:32:30;;;;;;;0.83;0.67;;;;;;;18.83;66.41;98954.16;5130776;27;39952;-83
2021/08/18 06:34:58;;;;;;;0.60;0.60;;;;;;;18.95;66.37;98953.84;5112869;27;41008;-83
2021/08/18 06:37:25;;;;;;;0.60;0.60;;;;;;;19.02;65.55;98960.31;5114147;27;42112;-83
2021/08/18 06:39:54;;;;;;;0.97;0.97;;;;;;;19.16;65.33;98961.69;5123264;27;43151;-81
2021/08/18 06:42:22;;;;;;;1.07;0.80;;;;;;;19.20;65.24;98960.38;5130571;27;40884;-90
2021/08/18 06:44:50;;;;;;;0.67;0.67;;;;;;;19.31;64.61;98964.72;5112200;27;40543;-82
2021/08/18 06:47:18;;;;;;;0.60;0.60;;;;;;;19.44;64.46;98962.53;5128331;27;41925;-83
2021/08/18 06:49:46;;;;;;;0.80;0.80;;;;;;;19.63;64.18;98962.47;5129806;27;42032;-86
2021/08/18 06:52:21;;;;;;;0.77;0.60;;;;;;;19.81;63.88;98967.00;5111599;27;38675;-85
2021/08/18 06:54:49;;;;;;;0.70;0.70;;;;;;;19.96;62.96;98968.19;5112154;27;40745;-90
2021/08/18 06:57:18;;;;;;;0.73;0.60;;;;;;;20.22;62.81;98982.56;5112518;27;42194;-88
2021/08/18 06:59:46;;;;;;;1.10;0.90;;;;;;;20.34;62.08;98992.09;5101396;28;41671;-84
2021/08/18 07:02:13;;;;;;;0.50;0.50;;;;;;;20.22;61.00;98977.19;5091786;28;40794;-85
2021/08/18 07:04:41;;;;;;;0.60;0.60;;;;;;;20.25;61.68;98992.19;5108110;28;40681;-84
2021/08/18 07:07:08;;;;;;;0.60;0.60;;;;;;;20.02;61.91;98956.84;5092487;28;41962;-85
2021/08/18 07:09:36;;;;;;;0.60;0.60;;;;;;;20.27;61.83;98991.03;5107276;28;42118;-82
2021/08/18 07:12:05;;;;;;;0.50;0.50;;;;;;;20.42;61.63;98994.03;5126560;27;39047;-83
2021/08/18 07:14:34;;;;;;;0.80;0.70;;;;;;;20.59;61.64;98995.03;5133328;27;41150;-80
2021/08/18 07:17:02;;;;;;;0.80;0.60;;;;;;;20.68;61.11;98994.91;5129531;27;41862;-82
2021/08/18 07:19:29;;;;;;;0.70;0.70;;;;;;;20.69;61.22;98991.22;5129893;27;41606;-85
2021/08/18 07:21:57;;;;;;;0.40;0.40;;;;;;;20.75;60.91;99000.53;5129767;27;39879;-82
2021/08/18 07:24:25;;;;;;;2.40;0.63;;;;;;;20.71;61.04;98996.47;5129093;27;42168;-81
2021/08/18 07:26:53;;;;;;;0.40;0.40;;;;;;;20.72;60.58;98990.09;5124657;27;43621;-83
2021/08/18 07:29:21;;;;;;;0.50;0.50;;;;;;;20.69;60.32;98993.94;5127438;27;43221;-82
2021/08/18 07:31:50;;;;;;;0.60;0.60;;;;;;;20.74;59.84;99004.22;5130821;27;39993;-82
2021/08/18 07:34:19;;;;;;;0.80;0.73;;;;;;;20.57;60.11;98983.56;5111771;27;40713;-83
2021/08/18 07:36:47;;;;;;;0.80;0.60;;;;;;;20.72;60.65;98996.31;5095006;27;43735;-80
2021/08/18 07:39:15;;;;;;;0.50;0.50;;;;;;;20.73;60.17;98997.16;5111359;27;41520;-81
2021/08/18 07:41:42;;;;;;;0.80;0.70;;;;;;;20.63;60.00;99001.78;5130469;27;39993;-80
2021/08/18 07:44:10;;;;;;;0.30;0.30;;;;;;;20.61;60.72;99001.94;5128772;27;42221;-82
2021/08/18 07:46:38;;;;;;;0.73;0.73;;;;;;;20.62;60.89;98997.41;5128285;27;41887;-84
2021/08/18 07:49:07;;;;;;;0.33;0.33;;;;;;;20.48;60.87;98976.44;5111204;27;41576;-84
2021/08/18 07:51:35;;;;;;;0.43;0.43;;;;;;;20.49;60.86;98989.75;5129759;27;41757;-86
2021/08/18 07:56:44;;;;;;;0.40;0.40;;;;;;;19.87;62.24;98952.97;5112158;27;41839;-86
2021/08/18 07:59:12;;;;;;;0.80;0.80;;;;;;;20.15;62.93;98997.63;5111194;27;42303;-87
2021/08/18 08:01:40;;;;;;;0.87;0.87;;;;;;;20.03;62.77;98990.75;5110901;27;39215;-87
2021/08/18 08:04:09;;;;;;;1.10;0.60;;;;;;;20.03;62.86;98982.69;5110986;27;40712;-86
2021/08/18 08:06:37;;;;;;;0.70;0.50;;;;;;;20.05;62.71;98988.78;5110092;27;41624;-88
2021/08/18 08:09:05;;;;;;;0.50;0.50;;;;;;;20.05;62.61;99002.22;5111029;27;42322;-86
2021/08/18 08:11:33;;;;;;;0.40;0.40;;;;;;;20.01;62.42;98995.47;5111467;27;39189;-86
2021/08/18 08:14:01;;;;;;;0.60;0.60;;;;;;;20.04;62.94;99006.75;5111083;27;40668;-89
2021/08/18 08:16:29;;;;;;;0.60;0.60;;;;;;;19.99;62.57;98989.41;5111450;27;42683;-86
2021/08/18 08:18:56;;;;;;;0.80;0.67;;;;;;;20.06;62.42;99001.22;5110953;27;41915;-82
2021/08/18 08:21:26;;;;;;;0.70;0.70;;;;;;;20.09;62.36;99003.63;5111623;27;39271;-81
2021/08/18 08:23:54;;;;;;;0.30;0.30;;;;;;;20.01;62.54;98979.34;5110653;27;40694;-84
2021/08/18 08:26:22;;;;;;;0.60;0.60;;;;;;;20.26;62.23;99005.47;5130160;27;42646;-81
2021/08/18 08:28:50;;;;;;;0.40;0.40;;;;;;;20.31;61.99;99008.53;5148305;27;41109;-83
2021/08/18 08:31:18;;;;;;;0.40;0.40;;;;;;;20.41;62.01;99009.31;5150052;27;40700;-82
2021/08/18 08:33:46;;;;;;;0.50;0.50;;;;;;;20.59;61.59;99014.72;5129655;27;41703;-83
2021/08/18 08:36:14;;;;;;;0.90;0.90;;;;;;;20.66;61.59;99009.53;5152904;27;43172;-86
2021/08/18 08:38:43;;;;;;;0.70;0.70;;;;;;;20.56;61.41;98981.88;5135009;27;42701;-80
2021/08/18 08:41:11;;;;;;;0.80;0.70;;;;;;;20.88;61.26;99011.75;5140143;27;40311;-81
2021/08/18 08:43:41;;;;;;;0.57;0.57;;;;;;;21.02;61.28;99019.22;5132319;27;41991;-78
2021/08/18 08:46:09;;;;;;;0.70;0.70;;;;;;;21.21;61.43;99006.59;5128879;27;41790;-79
2021/08/18 08:48:39;;;;;;;0.67;0.67;;;;;;;21.24;61.46;99011.66;5110608;27;41519;-77
2021/08/18 08:51:07;;;;;;;0.70;0.70;;;;;;;21.24;61.52;99023.28;5100998;28;40278;-77
2021/08/18 08:53:36;;;;;;;0.60;0.60;;;;;;;21.19;61.34;99030.16;5110184;28;41650;-79
2021/08/18 08:56:07;;;;;;;0.70;0.70;;;;;;;21.19;61.62;99013.97;5108487;28;42761;-83
2021/08/18 08:58:35;;;;;;;0.70;0.70;;;;;;;21.50;60.99;99029.50;5108935;28;41245;-77
2021/08/18 09:01:04;;;;;;;0.50;0.50;;;;;;;21.57;60.88;99027.00;5110677;27;40761;-77
2021/08/18 09:03:35;;;;;;;0.70;0.70;;;;;;;21.43;60.18;99028.44;5108602;27;41937;-82
2021/08/18 09:06:06;;;;;;;0.80;0.67;;;;;;;21.50;60.05;99023.25;5128682;27;43182;-85
2021/08/18 09:08:48;;;;;;;0.60;0.60;;;;;;;21.72;59.62;99033.47;5112312;27;41170;-87
2021/08/18 09:11:21;;;;;;;0.70;0.70;;;;;;;21.91;59.19;99034.19;5108611;28;39825;-84
2021/08/18 09:13:50;;;;;;;0.50;0.50;;;;;;;21.86;58.81;99029.31;5093521;28;40978;-88
2021/08/18 09:16:22;;;;;;;0.57;0.53;;;;;;;21.73;58.22;99007.34;5112749;28;42121;-92
2021/08/18 09:18:53;;;;;;;0.60;0.60;;;;;;;21.82;57.76;99023.38;5097580;27;41298;-87
2021/08/18 09:21:37;;;;;;;0.40;0.40;;;;;;;21.82;58.30;99015.31;5132072;27;40824;-86
2021/08/18 09:24:27;;;;;;;0.90;0.90;;;;;;;21.85;58.29;99033.00;5114490;27;40956;-78
2021/08/18 09:26:59;;;;;;;1.33;1.23;;;;;;;21.77;59.15;99023.03;5115192;27;42349;-77
2021/08/18 09:29:35;;;;;;;0.60;0.60;;;;;;;21.69;58.93;99011.38;5114770;27;41496;-80
2021/08/18 09:32:28;;;;;;;0.60;0.60;;;;;;;21.97;58.42;99028.16;5116194;27;40074;-86
2021/08/18 09:34:57;;;;;;;0.50;0.50;;;;;;;22.22;57.61;99043.44;5115356;27;40520;-86
2021/08/18 09:37:27;;;;;;;1.50;0.60;;;;;;;22.53;56.34;99038.25;5132335;27;42953;-84
2021/08/18 09:39:55;;;;;;;0.40;0.40;;;;;;;22.82;56.34;99048.59;5149417;27;41852;-82
2021/08/18 09:42:30;;;;;;;0.57;0.57;;;;;;;22.98;55.46;99051.28;5115438;27;39032;-86
2021/08/18 09:45:11;;;;;;;0.60;0.60;;;;;;;23.14;54.51;99063.91;5112725;27;41168;-85
2021/08/18 09:48:01;;;;;;;0.73;0.67;;;;;;;23.10;54.60;99059.91;5115282;27;42250;-82
2021/08/18 09:50:41;;;;;;;0.57;0.50;;;;;;;23.01;55.02;99058.19;5114067;27;41170;-84
2021/08/18 09:53:11;;;;;;;0.83;0.70;;;;;;;23.04;54.84;99053.31;5114300;27;39863;-80
2021/08/18 09:55:41;;;;;;;0.30;0.30;;;;;;;23.05;54.71;99059.53;5114120;27;41734;-82
2021/08/18 09:58:29;;;;;;;1.03;0.60;;;;;;;23.05;54.42;99055.00;5114844;27;42126;-80
2021/08/18 10:00:58;;;;;;;0.60;0.60;;;;;;;23.13;54.62;99046.88;5122066;27;43164;-81
2021/08/18 10:03:27;;;;;;;0.50;0.50;;;;;;;23.48;53.78;99061.00;5109713;28;40681;-78
2021/08/18 10:05:55;;;;;;;0.80;0.80;;;;;;;23.65;53.53;99054.56;5130188;27;41619;-78
2021/08/18 10:08:24;;;;;;;0.63;0.63;;;;;;;23.73;53.33;99051.84;5131801;27;43681;-76
2021/08/18 10:10:52;;;;;;;0.50;0.50;;;;;;;23.65;53.51;99038.31;5113214;27;41356;-80
2021/08/18 10:13:22;;;;;;;0.70;0.70;;;;;;;23.71;52.86;99051.16;5113546;27;39836;-83
2021/08/18 10:15:52;;;;;;;0.53;0.53;;;;;;;23.66;52.66;99058.09;5123195;27;41055;-77
2021/08/18 10:18:29;;;;;;;0.53;0.53;;;;;;;23.63;53.04;99054.72;5110567;28;41835;-81
2021/08/18 10:20:58;;;;;;;0.40;0.40;;;;;;;23.49;53.33;99047.28;5130413;27;41511;-81
2021/08/18 10:23:51;;;;;;;0.87;0.60;;;;;;;23.46;53.23;99049.53;5131856;27;40047;-81
2021/08/18 10:26:52;;;;;;;0.70;0.70;;;;;;;23.28;53.83;99055.97;5130941;27;41205;-81
2021/08/18 10:29:43;;;;;;;0.43;0.43;;;;;;;23.05;54.56;99049.59;5130655;27;41829;-80
2021/08/18 10:32:14;;;;;;;0.43;0.43;;;;;;;23.03;54.82;99040.81;5098508;27;41082;-81
2021/08/18 10:34:47;;;;;;;0.40;0.40;;;;;;;23.14;54.73;99048.56;5114006;27;38994;-81
2021/08/18 10:37:21;;;;;;;0.50;0.50;;;;;;;23.16;54.81;99051.09;5113559;27;40749;-81
2021/08/18 10:39:54;;;;;;;0.60;0.60;;;;;;;23.21;54.63;99054.97;5113622;27;41990;-81
2021/08/18 10:42:38;;;;;;;0.40;0.40;;;;;;;23.27;53.84;99056.97;5130176;27;42682;-81
2021/08/18 10:45:38;;;;;;;0.60;0.60;;;;;;;23.37;54.15;99053.28;5130613;27;40020;-81
2021/08/18 10:48:09;;;;;;;0.50;0.50;;;;;;;23.93;53.61;99044.13;5120881;27;40996;-80
2021/08/18 10:50:50;;;;;;;0.57;0.57;;;;;;;24.82;51.59;99045.47;5130535;27;42981;-83
2021/08/18 10:53:31;;;;;;;0.40;0.40;;;;;;;26.20;49.33;99063.00;5132957;27;43184;-83
2021/08/18 10:56:00;;;;;;;0.50;0.50;;;;;;;26.81;46.10;99086.91;5130730;27;40903;-82
2021/08/18 10:58:29;;;;;;;0.60;0.60;;;;;;;27.32;45.82;99080.47;5130363;27;41845;-81
2021/08/18 11:00:57;;;;;;;0.40;0.40;;;;;;;27.22;44.23;99048.16;5129844;27;41695;-81
2021/08/18 11:03:31;;;;;;;0.43;0.43;;;;;;;27.66;44.59;99091.41;5131162;27;43207;-81
2021/08/18 11:05:59;;;;;;;0.53;0.53;;;;;;;28.06;43.14;99084.31;5112887;27;39164;-87
2021/08/18 11:08:28;;;;;;;0.73;0.73;;;;;;;28.95;42.31;99076.00;5112982;27;40606;-83
2021/08/18 11:11:17;;;;;;;0.30;0.30;;;;;;;30.43;40.23;99099.94;5130898;27;43303;-80
2021/08/18 11:13:47;;;;;;;0.43;0.43;;;;;;;31.72;36.52;99111.31;5112775;27;41457;-81
2021/08/18 11:16:17;;;;;;;0.63;0.60;;;;;;;32.06;35.48;99107.13;5096033;28;38970;-82
2021/08/18 11:18:52;;;;;;;0.60;0.60;;;;;;;31.63;35.13;99126.31;5105807;27;42083;-79
2021/08/18 11:21:22;;;;;;;0.70;0.70;;;;;;;30.76;36.78;99088.88;5130009;27;41693;-83
2021/08/18 11:23:53;;;;;;;0.60;0.53;;;;;;;30.20;37.43;99105.09;5124087;27;42945;-81
2021/08/18 11:26:24;;;;;;;0.50;0.50;;;;;;;29.63;39.47;99093.88;5131838;27;39855;-82
2021/08/18 11:29:02;;;;;;;0.60;0.60;;;;;;;29.07;40.26;99076.22;5131204;27;42052;-84
2021/08/18 11:31:35;;;;;;;0.60;0.60;;;;;;;28.83;40.86;99073.06;5113749;27;42756;-80
2021/08/18 11:34:05;;;;;;;0.60;0.60;;;;;;;28.59;41.19;99063.56;5113248;27;41141;-90
2021/08/18 11:36:36;;;;;;;0.57;0.57;;;;;;;28.44;41.12;99070.22;5112748;27;38882;-82
2021/08/18 11:39:06;;;;;;;0.60;0.60;;;;;;;28.14;41.81;99070.53;5147788;27;40878;-84
2021/08/18 11:41:40;;;;;;;0.60;0.60;;;;;;;28.08;41.88;99065.88;5130931;27;42930;-89
2021/08/18 11:44:10;;;;;;;0.53;0.53;;;;;;;27.92;41.78;99060.78;5131738;27;42323;-88
2021/08/18 11:46:38;;;;;;;0.67;0.67;;;;;;;28.01;42.06;99064.16;5113649;27;39312;-84
2021/08/18 11:49:11;;;;;;;0.63;0.63;;;;;;;27.53;42.16;99031.44;5106180;28;41637;-82